createdAt,value
2022-12-08T00:01:33.687Z,99674.00
2022-12-08T00:04:03.305Z,99677.00
2022-12-08T00:07:03.026Z,99668.00
2022-12-08T00:09:39.506Z,99675.00
2022-12-08T00:12:13.165Z,99664.00
2022-12-08T00:14:43.353Z,99661.00
2022-12-08T00:17:13.307Z,99654.00
2022-12-08T00:19:42.082Z,99648.00
2022-12-08T00:22:11.764Z,99648.00
2022-12-08T00:24:40.771Z,99636.00
2022-12-08T00:27:09.974Z,99645.00
2022-12-08T00:29:37.993Z,99648.00
2022-12-08T00:32:06.507Z,99641.00
2022-12-08T00:34:34.566Z,99635.00
2022-12-08T00:37:02.691Z,99632.00
2022-12-08T00:39:30.662Z,99637.00
2022-12-08T00:42:13.535Z,99643.00
2022-12-08T00:44:42.916Z,99631.00
2022-12-08T00:47:11.507Z,99626.00
2022-12-08T00:49:39.290Z,99622.00
2022-12-08T00:52:07.274Z,99620.00
2022-12-08T00:54:35.734Z,99631.00
2022-12-08T00:57:03.636Z,99628.00
2022-12-08T00:59:31.373Z,99623.00
2022-12-08T01:01:59.193Z,99622.00
2022-12-08T01:04:27.068Z,99618.00
2022-12-08T01:06:54.984Z,99629.00
2022-12-08T01:09:23.020Z,99628.00
2022-12-08T01:11:50.816Z,99621.00
2022-12-08T01:14:18.921Z,99610.00
2022-12-08T01:16:46.992Z,99610.00
2022-12-08T01:19:15.824Z,99614.00
2022-12-08T01:21:44.542Z,99603.00
2022-12-08T01:24:17.581Z,99618.00
2022-12-08T01:26:46.030Z,99607.00
2022-12-08T01:29:14.236Z,99610.00
2022-12-08T01:31:42.271Z,99610.00
2022-12-08T01:34:11.250Z,99611.00
2022-12-08T01:36:39.284Z,99617.00
2022-12-08T01:39:09.359Z,99613.00
2022-12-08T01:41:38.204Z,99623.00
2022-12-08T01:44:25.816Z,99606.00
2022-12-08T01:46:54.301Z,99614.00
2022-12-08T01:49:28.794Z,99603.00
2022-12-08T01:52:20.784Z,99610.00
2022-12-08T01:54:52.717Z,99603.00
2022-12-08T01:57:45.365Z,99593.00
2022-12-08T02:00:15.864Z,99598.00
2022-12-08T02:02:53.802Z,99595.00
2022-12-08T02:05:25.157Z,99599.00
2022-12-08T02:07:53.409Z,99589.00
2022-12-08T02:10:23.350Z,99583.00
2022-12-08T02:12:53.486Z,99584.00
2022-12-08T02:15:25.990Z,99583.00
2022-12-08T02:18:32.936Z,99581.00
2022-12-08T02:21:03.768Z,99588.00
2022-12-08T02:23:46.561Z,99588.00
2022-12-08T02:26:29.819Z,99583.00
2022-12-08T02:29:16.156Z,99592.00
2022-12-08T02:31:58.499Z,99583.00
2022-12-08T02:34:53.524Z,99573.00
2022-12-08T02:37:33.354Z,99580.00
2022-12-08T02:40:24.618Z,99574.00
2022-12-08T02:43:43.544Z,99562.00
2022-12-08T02:50:09.754Z,99557.00
2022-12-08T02:52:45.943Z,99554.00
2022-12-08T02:55:25.787Z,99556.00
2022-12-08T02:58:20.729Z,99545.00
2022-12-08T03:01:06.627Z,99555.00
2022-12-08T03:03:55.106Z,99552.00
2022-12-08T03:06:44.327Z,99551.00
2022-12-08T03:09:31.278Z,99545.00
2022-12-08T03:12:04.655Z,99545.00
2022-12-08T03:14:33.009Z,99538.00
2022-12-08T03:17:01.368Z,99534.00
2022-12-08T03:19:33.426Z,99539.00
2022-12-08T03:22:20.641Z,99542.00
2022-12-08T03:24:49.393Z,99543.00
2022-12-08T03:27:20.379Z,99538.00
2022-12-08T03:30:01.813Z,99533.00
2022-12-08T03:32:47.905Z,99530.00
2022-12-08T03:35:18.406Z,99525.00
2022-12-08T03:37:46.313Z,99529.00
2022-12-08T03:40:16.849Z,99522.00
2022-12-08T03:42:44.661Z,99524.00
2022-12-08T03:45:12.597Z,99513.00
2022-12-08T03:47:40.468Z,99516.00
2022-12-08T03:50:08.657Z,99504.00
2022-12-08T03:52:36.531Z,99506.00
2022-12-08T03:55:04.466Z,99509.00
2022-12-08T03:57:32.419Z,99502.00
2022-12-08T04:00:00.113Z,99493.00
2022-12-08T04:02:27.787Z,99494.00
2022-12-08T04:04:55.514Z,99486.00
2022-12-08T04:07:23.354Z,99492.00
2022-12-08T04:09:51.185Z,99497.00
2022-12-08T04:12:19.031Z,99488.00
2022-12-08T04:14:46.827Z,99492.00
2022-12-08T04:17:14.716Z,99495.00
2022-12-08T04:19:42.422Z,99483.00
2022-12-08T04:22:10.104Z,99481.00
2022-12-08T04:24:37.907Z,99479.00
2022-12-08T04:27:05.605Z,99492.00
2022-12-08T04:29:33.446Z,99477.00
2022-12-08T04:32:01.249Z,99475.00
2022-12-08T04:34:29.212Z,99472.00
2022-12-08T04:36:57.087Z,99474.00
2022-12-08T04:39:25.079Z,99472.00
2022-12-08T04:41:52.777Z,99462.00
2022-12-08T04:44:20.410Z,99458.00
2022-12-08T04:46:48.407Z,99464.00
2022-12-08T04:49:16.356Z,99464.00
2022-12-08T04:51:44.075Z,99465.00
2022-12-08T04:54:11.958Z,99469.00
2022-12-08T04:56:39.789Z,99465.00
2022-12-08T04:59:07.552Z,99467.00
2022-12-08T05:01:35.361Z,99465.00
2022-12-08T05:04:03.181Z,99459.00
2022-12-08T05:06:30.925Z,99460.00
2022-12-08T05:08:58.676Z,99460.00
2022-12-08T05:11:26.403Z,99449.00
2022-12-08T05:13:54.213Z,99452.00
2022-12-08T05:16:22.051Z,99452.00
2022-12-08T05:18:50.203Z,99452.00
2022-12-08T05:21:17.920Z,99454.00
2022-12-08T05:23:45.704Z,99451.00
2022-12-08T05:26:13.776Z,99453.00
2022-12-08T05:28:42.939Z,99458.00
2022-12-08T05:31:12.237Z,99449.00
2022-12-08T05:33:40.274Z,99452.00
2022-12-08T05:36:08.781Z,99448.00
2022-12-08T05:38:37.073Z,99451.00
2022-12-08T05:41:08.564Z,99445.00
2022-12-08T05:43:36.952Z,99440.00
2022-12-08T05:46:05.102Z,99437.00
2022-12-08T05:48:32.940Z,99434.00
2022-12-08T05:51:01.903Z,99431.00
2022-12-08T05:53:29.995Z,99440.00
2022-12-08T05:55:57.882Z,99433.00
2022-12-08T05:58:25.634Z,99430.00
2022-12-08T06:00:53.266Z,99432.00
2022-12-08T06:03:21.177Z,99422.00
2022-12-08T06:05:49.303Z,99427.00
2022-12-08T06:08:17.520Z,99429.00
2022-12-08T06:10:46.213Z,99422.00
2022-12-08T06:13:14.973Z,99414.00
2022-12-08T06:15:43.316Z,99428.00
2022-12-08T06:18:12.237Z,99410.00
2022-12-08T06:20:40.053Z,99422.00
2022-12-08T06:23:07.914Z,99418.00
2022-12-08T06:25:35.757Z,99414.00
2022-12-08T06:28:06.646Z,99410.00
2022-12-08T06:30:34.439Z,99417.00
2022-12-08T06:33:02.188Z,99407.00
2022-12-08T06:35:29.986Z,99413.00
2022-12-08T06:37:57.900Z,99413.00
2022-12-08T06:40:25.757Z,99414.00
2022-12-08T06:42:53.584Z,99423.00
2022-12-08T06:45:24.043Z,99421.00
2022-12-08T06:47:51.954Z,99423.00
2022-12-08T06:50:23.167Z,99420.00
2022-12-08T06:53:01.012Z,99413.00
2022-12-08T06:58:21.235Z,99431.00
2022-12-08T07:00:49.090Z,99424.00
2022-12-08T07:03:16.970Z,99430.00
2022-12-08T07:05:44.837Z,99433.00
2022-12-08T07:08:12.723Z,99438.00
2022-12-08T07:10:40.607Z,99433.00
2022-12-08T07:13:08.328Z,99432.00
2022-12-08T07:15:36.192Z,99439.00
2022-12-08T07:18:04.216Z,99432.00
2022-12-08T07:20:32.192Z,99436.00
2022-12-08T07:23:00.095Z,99434.00
2022-12-08T07:25:27.917Z,99438.00
2022-12-08T07:27:55.752Z,99435.00
2022-12-08T07:30:23.626Z,99430.00
2022-12-08T07:32:51.547Z,99428.00
2022-12-08T07:35:19.551Z,99425.00
2022-12-08T07:37:47.425Z,99432.00
2022-12-08T07:40:15.467Z,99429.00
2022-12-08T07:42:43.289Z,99429.00
2022-12-08T07:45:11.507Z,99418.00
2022-12-08T07:47:39.363Z,99419.00
2022-12-08T07:50:08.435Z,99423.00
2022-12-08T07:52:36.912Z,99431.00
2022-12-08T07:55:05.100Z,99430.00
2022-12-08T07:57:32.951Z,99433.00
2022-12-08T08:00:00.773Z,99425.00
2022-12-08T08:02:28.936Z,99419.00
2022-12-08T08:04:57.051Z,99428.00
2022-12-08T08:07:27.594Z,99425.00
2022-12-08T08:09:55.627Z,99418.00
2022-12-08T08:12:31.362Z,99419.00
2022-12-08T08:15:01.018Z,99422.00
2022-12-08T08:17:29.928Z,99421.00
2022-12-08T08:19:58.367Z,99426.00
2022-12-08T08:22:26.995Z,99432.00
2022-12-08T08:24:54.931Z,99435.00
2022-12-08T08:27:23.333Z,99436.00
2022-12-08T08:29:51.549Z,99440.00
2022-12-08T08:32:19.383Z,99434.00
2022-12-08T08:34:47.302Z,99430.00
2022-12-08T08:37:15.369Z,99431.00
2022-12-08T08:39:43.583Z,99433.00
2022-12-08T08:42:11.567Z,99441.00
2022-12-08T08:44:39.453Z,99443.00
2022-12-08T08:47:08.057Z,99439.00
2022-12-08T08:49:35.889Z,99444.00
2022-12-08T08:52:05.819Z,99451.00
2022-12-08T08:54:34.201Z,99443.00
2022-12-08T08:57:02.184Z,99444.00
2022-12-08T08:59:30.417Z,99440.00
2022-12-08T09:01:58.575Z,99448.00
2022-12-08T09:04:27.737Z,99443.00
2022-12-08T09:06:55.684Z,99437.00
2022-12-08T09:09:23.869Z,99442.00
2022-12-08T09:11:51.878Z,99441.00
2022-12-08T09:14:19.807Z,99444.00
2022-12-08T09:16:47.786Z,99448.00
2022-12-08T09:19:15.786Z,99444.00
2022-12-08T09:21:43.830Z,99446.00
2022-12-08T09:24:16.039Z,99456.00
2022-12-08T09:26:44.948Z,99445.00
2022-12-08T09:29:14.951Z,99451.00
2022-12-08T09:31:44.161Z,99446.00
2022-12-08T09:34:13.423Z,99456.00
2022-12-08T09:36:41.511Z,99457.00
2022-12-08T09:39:09.417Z,99447.00
2022-12-08T09:41:48.555Z,99446.00
2022-12-08T09:44:17.451Z,99444.00
2022-12-08T09:46:45.651Z,99443.00
2022-12-08T09:49:16.961Z,99442.00
2022-12-08T09:51:46.515Z,99453.00
2022-12-08T09:54:25.419Z,99449.00
2022-12-08T09:56:55.787Z,99456.00
2022-12-08T09:59:27.754Z,99442.00
2022-12-08T10:01:56.167Z,99451.00
2022-12-08T10:04:29.823Z,99439.00
2022-12-08T10:07:05.049Z,99441.00
2022-12-08T10:09:46.358Z,99436.00
2022-12-08T10:12:47.690Z,99445.00
2022-12-08T10:15:43.393Z,99435.00
2022-12-08T10:18:23.832Z,99427.00
2022-12-08T10:20:52.456Z,99433.00
2022-12-08T10:23:37.462Z,99431.00
2022-12-08T10:26:25.302Z,99432.00
2022-12-08T10:28:53.356Z,99425.00
2022-12-08T10:31:23.730Z,99424.00
2022-12-08T10:34:02.584Z,99436.00
2022-12-08T10:36:47.392Z,99427.00
2022-12-08T10:39:38.176Z,99430.00
2022-12-08T10:42:26.466Z,99422.00
2022-12-08T10:44:54.337Z,99434.00
2022-12-08T10:47:24.125Z,99428.00
2022-12-08T10:50:22.263Z,99422.00
2022-12-08T10:53:00.094Z,99420.00
2022-12-08T10:55:29.415Z,99422.00
2022-12-08T10:57:57.338Z,99416.00
2022-12-08T11:00:28.025Z,99420.00
2022-12-08T11:03:04.547Z,99416.00
2022-12-08T11:05:36.994Z,99416.00
2022-12-08T11:08:06.626Z,99421.00
2022-12-08T11:10:37.830Z,99418.00
2022-12-08T11:13:07.721Z,99424.00
2022-12-08T11:15:41.731Z,99418.00
2022-12-08T11:18:30.640Z,99423.00
2022-12-08T11:21:03.044Z,99420.00
2022-12-08T11:23:31.449Z,99417.00
2022-12-08T11:26:24.154Z,99419.00
2022-12-08T11:28:52.281Z,99415.00
2022-12-08T11:31:35.922Z,99422.00
2022-12-08T11:34:04.549Z,99408.00
2022-12-08T11:36:34.770Z,99413.00
2022-12-08T11:39:04.613Z,99416.00
2022-12-08T11:41:38.567Z,99411.00
2022-12-08T11:44:22.698Z,99403.00
2022-12-08T11:47:00.064Z,99399.00
2022-12-08T11:49:37.715Z,99397.00
2022-12-08T11:52:23.191Z,99405.00
2022-12-08T11:55:01.880Z,99400.00
2022-12-08T11:57:31.118Z,99408.00
2022-12-08T12:00:03.601Z,99406.00
2022-12-08T12:02:51.528Z,99401.00
2022-12-08T12:06:09.090Z,99403.00
2022-12-08T12:08:49.865Z,99393.00
2022-12-08T12:12:08.105Z,99399.00
2022-12-08T12:15:11.695Z,99411.00
2022-12-08T12:17:49.258Z,99406.00
2022-12-08T12:20:31.268Z,99411.00
2022-12-08T12:23:03.839Z,99408.00
2022-12-08T12:25:34.145Z,99406.00
2022-12-08T12:28:05.930Z,99413.00
2022-12-08T12:30:49.068Z,99407.00
2022-12-08T12:33:18.486Z,99408.00
2022-12-08T12:35:49.560Z,99399.00
2022-12-08T12:38:46.653Z,99394.00
2022-12-08T12:41:15.338Z,99401.00
2022-12-08T12:44:08.562Z,99412.00
2022-12-08T12:46:50.825Z,99405.00
2022-12-08T12:49:40.812Z,99407.00
2022-12-08T12:52:21.296Z,99404.00
2022-12-08T12:54:52.085Z,99396.00
2022-12-08T12:57:19.972Z,99405.00
2022-12-08T12:59:55.798Z,99403.00
2022-12-08T13:02:46.115Z,99396.00
2022-12-08T13:05:21.268Z,99395.00
2022-12-08T13:08:03.207Z,99398.00
2022-12-08T13:10:38.014Z,99407.00
2022-12-08T13:13:18.067Z,99413.00
2022-12-08T13:15:54.616Z,99411.00
2022-12-08T13:18:27.135Z,99416.00
2022-12-08T13:21:10.154Z,99410.00
2022-12-08T13:23:38.246Z,99405.00
2022-12-08T13:26:19.509Z,99409.00
2022-12-08T13:29:03.936Z,99407.00
2022-12-08T13:31:49.805Z,99414.00
2022-12-08T13:34:53.614Z,99406.00
2022-12-08T13:37:52.366Z,99400.00
2022-12-08T13:40:26.332Z,99404.00
2022-12-08T13:42:59.135Z,99398.00
2022-12-08T13:46:10.920Z,99393.00
2022-12-08T13:49:13.597Z,99402.00
2022-12-08T13:53:22.492Z,99417.00
2022-12-08T13:55:49.526Z,99414.00
2022-12-08T13:57:36.395Z,99413.00
2022-12-08T14:00:15.431Z,99418.00
2022-12-08T14:02:47.990Z,99421.00
2022-12-08T14:05:34.894Z,99423.00
2022-12-08T14:09:06.719Z,99426.00
2022-12-08T14:11:38.453Z,99419.00
2022-12-08T14:14:32.699Z,99417.00
2022-12-08T14:17:34.633Z,99418.00
2022-12-08T14:20:12.710Z,99424.00
2022-12-08T14:22:41.656Z,99425.00
2022-12-08T14:25:15.368Z,99433.00
2022-12-08T14:27:43.642Z,99425.00
2022-12-08T14:30:14.634Z,99424.00
2022-12-08T14:32:53.152Z,99423.00
2022-12-08T14:35:24.206Z,99424.00
2022-12-08T14:38:00.872Z,99423.00
2022-12-08T14:40:35.457Z,99421.00
2022-12-08T14:43:13.999Z,99418.00
2022-12-08T14:45:41.926Z,99424.00
2022-12-08T14:48:27.497Z,99424.00
2022-12-08T14:50:59.645Z,99420.00
2022-12-08T14:53:50.039Z,99421.00
2022-12-08T14:56:19.900Z,99430.00
2022-12-08T14:59:03.606Z,99431.00
2022-12-08T15:01:32.069Z,99437.00
2022-12-08T15:04:15.098Z,99435.00
2022-12-08T15:07:19.780Z,99444.00
2022-12-08T15:09:50.318Z,99445.00
2022-12-08T15:12:27.088Z,99444.00
2022-12-08T15:15:01.754Z,99451.00
2022-12-08T15:17:36.666Z,99448.00
2022-12-08T15:20:05.438Z,99445.00
2022-12-08T15:22:33.951Z,99448.00
2022-12-08T15:25:01.981Z,99454.00
2022-12-08T15:27:29.900Z,99454.00
2022-12-08T15:29:57.831Z,99455.00
2022-12-08T15:32:25.835Z,99456.00
2022-12-08T15:34:53.719Z,99462.00
2022-12-08T15:37:26.730Z,99463.00
2022-12-08T15:39:55.131Z,99462.00
2022-12-08T15:42:23.077Z,99460.00
2022-12-08T15:44:50.949Z,99461.00
2022-12-08T15:47:21.147Z,99458.00
2022-12-08T15:49:50.205Z,99461.00
2022-12-08T15:52:21.705Z,99464.00
2022-12-08T15:54:50.140Z,99463.00
2022-12-08T15:57:44.129Z,99469.00
2022-12-08T16:09:18.554Z,99463.00
2022-12-08T16:12:07.213Z,99467.00
2022-12-08T16:17:23.702Z,99473.00
2022-12-08T16:19:51.663Z,99472.00
2022-12-08T16:25:19.396Z,99475.00
2022-12-08T16:28:37.061Z,99473.00
2022-12-08T16:30:40.149Z,99473.00
2022-12-08T16:33:08.340Z,99475.00
2022-12-08T16:35:36.100Z,99479.00
2022-12-08T16:38:04.310Z,99481.00
2022-12-08T16:40:32.337Z,99485.00
2022-12-08T16:43:00.030Z,99484.00
2022-12-08T16:45:31.499Z,99481.00
2022-12-08T16:48:00.790Z,99485.00
2022-12-08T16:50:36.031Z,99485.00
2022-12-08T16:53:07.313Z,99484.00
2022-12-08T16:55:35.619Z,99488.00
2022-12-08T16:58:03.871Z,99488.00
2022-12-08T17:00:37.293Z,99483.00
2022-12-08T17:03:08.101Z,99484.00
2022-12-08T17:05:35.829Z,99492.00
2022-12-08T17:08:04.247Z,99496.00
2022-12-08T17:10:34.524Z,99497.00
2022-12-08T17:13:02.934Z,99482.00
2022-12-08T17:15:30.722Z,99488.00
2022-12-08T17:17:58.433Z,99489.00
2022-12-08T17:20:28.125Z,99489.00
2022-12-08T17:22:58.088Z,99491.00
2022-12-08T17:25:27.174Z,99481.00
2022-12-08T17:27:56.609Z,99485.00
2022-12-08T17:30:24.764Z,99481.00
2022-12-08T17:32:53.058Z,99488.00
2022-12-08T17:35:21.013Z,99482.00
2022-12-08T17:37:49.193Z,99489.00
2022-12-08T17:40:17.009Z,99492.00
2022-12-08T17:42:46.604Z,99486.00
2022-12-08T17:45:14.471Z,99486.00
2022-12-08T17:47:42.459Z,99490.00
2022-12-08T17:50:10.746Z,99495.00
2022-12-08T17:52:39.195Z,99497.00
2022-12-08T17:55:08.202Z,99497.00
2022-12-08T17:57:35.881Z,99496.00
2022-12-08T18:00:05.171Z,99505.00
2022-12-08T18:02:39.594Z,99501.00
2022-12-08T18:05:07.731Z,99505.00
2022-12-08T18:07:35.473Z,99502.00
2022-12-08T18:10:03.735Z,99495.00
2022-12-08T18:12:32.145Z,99496.00
2022-12-08T18:15:00.131Z,99489.00
2022-12-08T18:17:28.026Z,99497.00
2022-12-08T18:19:56.066Z,99498.00
2022-12-08T18:22:24.358Z,99492.00
2022-12-08T18:24:52.141Z,99487.00
2022-12-08T18:27:20.164Z,99493.00
2022-12-08T18:29:47.904Z,99495.00
2022-12-08T18:32:15.613Z,99491.00
2022-12-08T18:34:43.446Z,99502.00
2022-12-08T18:37:11.186Z,99500.00
2022-12-08T18:39:39.041Z,99503.00
2022-12-08T18:42:24.881Z,99509.00
2022-12-08T18:45:01.956Z,99506.00
2022-12-08T18:47:34.333Z,99500.00
2022-12-08T18:50:02.124Z,99499.00
2022-12-08T18:52:32.192Z,99499.00
2022-12-08T18:55:08.075Z,99509.00
2022-12-08T18:57:38.908Z,99507.00
2022-12-08T19:00:08.535Z,99501.00
2022-12-08T19:02:37.564Z,99506.00
2022-12-08T19:05:06.993Z,99503.00
2022-12-08T19:07:34.919Z,99501.00
2022-12-08T19:10:02.865Z,99502.00
2022-12-08T19:12:30.660Z,99505.00
2022-12-08T19:14:58.602Z,99523.00
2022-12-08T19:17:26.378Z,99526.00
2022-12-08T19:19:54.298Z,99518.00
2022-12-08T19:22:22.088Z,99522.00
2022-12-08T19:24:50.115Z,99523.00
2022-12-08T19:27:18.810Z,99520.00
2022-12-08T19:29:46.716Z,99521.00
2022-12-08T19:32:15.858Z,99526.00
2022-12-08T19:34:43.700Z,99527.00
2022-12-08T19:37:13.318Z,99522.00
2022-12-08T19:39:59.722Z,99524.00
2022-12-08T19:42:45.863Z,99530.00
2022-12-08T19:45:21.280Z,99536.00
2022-12-08T19:47:49.358Z,99542.00
2022-12-08T19:50:36.320Z,99536.00
2022-12-08T19:53:14.107Z,99540.00
2022-12-08T19:55:43.422Z,99535.00
2022-12-08T19:58:11.627Z,99533.00
2022-12-08T20:00:44.017Z,99536.00
2022-12-08T20:03:16.364Z,99532.00
2022-12-08T20:05:44.987Z,99545.00
2022-12-08T20:08:12.852Z,99533.00
2022-12-08T20:10:42.678Z,99547.00
2022-12-08T20:13:30.102Z,99545.00
2022-12-08T20:15:58.339Z,99543.00
2022-12-08T20:18:29.057Z,99540.00
2022-12-08T20:20:57.250Z,99537.00
2022-12-08T20:23:25.064Z,99542.00
2022-12-08T20:25:52.929Z,99537.00
2022-12-08T20:28:20.884Z,99540.00
2022-12-08T20:30:49.272Z,99533.00
2022-12-08T20:33:18.672Z,99545.00
2022-12-08T20:35:47.243Z,99538.00
2022-12-08T20:38:15.202Z,99541.00
2022-12-08T20:40:47.656Z,99543.00
2022-12-08T20:43:15.454Z,99557.00
2022-12-08T20:45:43.476Z,99553.00
2022-12-08T20:48:11.627Z,99560.00
2022-12-08T20:50:39.440Z,99550.00
2022-12-08T20:53:07.370Z,99560.00
2022-12-08T20:55:38.288Z,99552.00
2022-12-08T20:58:06.126Z,99563.00
2022-12-08T21:00:34.135Z,99552.00
2022-12-08T21:03:02.177Z,99554.00
2022-12-08T21:05:30.229Z,99555.00
2022-12-08T21:07:58.213Z,99568.00
2022-12-08T21:10:28.596Z,99561.00
2022-12-08T21:12:56.672Z,99572.00
2022-12-08T21:15:24.675Z,99572.00
2022-12-08T21:17:52.693Z,99562.00
2022-12-08T21:20:21.160Z,99562.00
2022-12-08T21:22:49.123Z,99562.00
2022-12-08T21:25:17.126Z,99563.00
2022-12-08T21:27:44.866Z,99565.00
2022-12-08T21:30:13.313Z,99566.00
2022-12-08T21:32:41.337Z,99565.00
2022-12-08T21:35:09.644Z,99570.00
2022-12-08T21:37:37.784Z,99567.00
2022-12-08T21:40:07.682Z,99573.00
2022-12-08T21:42:44.988Z,99572.00
2022-12-08T21:45:15.478Z,99573.00
2022-12-08T21:47:44.156Z,99570.00
2022-12-08T21:50:13.001Z,99570.00
2022-12-08T21:52:42.777Z,99567.00
2022-12-08T21:55:13.431Z,99561.00
2022-12-08T21:57:42.053Z,99571.00
2022-12-08T22:00:12.508Z,99569.00
2022-12-08T22:02:40.674Z,99572.00
2022-12-08T22:05:09.278Z,99575.00
2022-12-08T22:07:39.557Z,99570.00
2022-12-08T22:10:09.375Z,99570.00
2022-12-08T22:12:38.202Z,99576.00
2022-12-08T22:15:07.575Z,99577.00
2022-12-08T22:17:40.847Z,99575.00
2022-12-08T22:20:12.814Z,99576.00
2022-12-08T22:22:41.343Z,99576.00
2022-12-08T22:25:12.437Z,99569.00
2022-12-08T22:27:41.772Z,99568.00
2022-12-08T22:30:11.082Z,99574.00
2022-12-08T22:32:40.044Z,99569.00
2022-12-08T22:35:08.141Z,99566.00
2022-12-08T22:37:35.892Z,99567.00
2022-12-08T22:40:04.450Z,99569.00
2022-12-08T22:42:32.463Z,99575.00
2022-12-08T22:45:00.487Z,99572.00
2022-12-08T22:47:28.466Z,99574.00
2022-12-08T22:49:56.378Z,99574.00
2022-12-08T22:52:24.311Z,99565.00
2022-12-08T22:54:52.083Z,99571.00
2022-12-08T22:57:20.437Z,99569.00
2022-12-08T22:59:48.312Z,99567.00
2022-12-08T23:02:16.330Z,99574.00
2022-12-08T23:04:46.815Z,99573.00
2022-12-08T23:07:15.032Z,99565.00
2022-12-08T23:09:43.814Z,99571.00
2022-12-08T23:12:11.718Z,99566.00
2022-12-08T23:14:39.657Z,99569.00
2022-12-08T23:17:07.651Z,99566.00
2022-12-08T23:19:37.302Z,99567.00
2022-12-08T23:22:05.363Z,99566.00
2022-12-08T23:24:33.537Z,99563.00
2022-12-08T23:27:01.715Z,99561.00
2022-12-08T23:29:29.884Z,99560.00
2022-12-08T23:31:57.846Z,99560.00
2022-12-08T23:34:25.807Z,99562.00
2022-12-08T23:36:53.889Z,99566.00
2022-12-08T23:39:24.259Z,99560.00
2022-12-08T23:41:52.789Z,99562.00
2022-12-08T23:44:20.828Z,99553.00
2022-12-08T23:46:49.010Z,99554.00
2022-12-08T23:49:17.208Z,99563.00
2022-12-08T23:51:45.258Z,99562.00
2022-12-08T23:54:13.361Z,99555.00
2022-12-08T23:56:41.771Z,99568.00
2022-12-08T23:59:10.159Z,99566.00
